createdAt,value
2023-04-24T00:00:57.440Z,96457.03
2023-04-24T00:03:23.890Z,96469.09
2023-04-24T00:05:50.316Z,96472.34
2023-04-24T00:08:16.659Z,96468.38
2023-04-24T00:10:43.134Z,96460.94
2023-04-24T00:13:09.699Z,96455.06
2023-04-24T00:15:36.026Z,96471.69
2023-04-24T00:18:02.457Z,96468.78
2023-04-24T00:20:28.871Z,96485.41
2023-04-24T00:22:55.493Z,96477.69
2023-04-24T00:25:21.789Z,96480.13
2023-04-24T00:27:48.067Z,96476.16
2023-04-24T00:30:14.368Z,96479.41
2023-04-24T00:32:40.715Z,96467.41
2023-04-24T00:35:07.077Z,96476.81
2023-04-24T00:37:33.388Z,96492.63
2023-04-24T00:39:59.833Z,96465.09
2023-04-24T00:42:26.342Z,96475.25
2023-04-24T00:44:53.283Z,96482.25
2023-04-24T00:47:19.778Z,96478.31
2023-04-24T00:49:46.290Z,96475.09
2023-04-24T00:52:13.116Z,96459.66
2023-04-24T00:54:39.724Z,96454.88
2023-04-24T00:57:06.034Z,96445.56
2023-04-24T00:59:32.374Z,96446.91
2023-04-24T01:01:58.737Z,96438.38
2023-04-24T01:04:25.099Z,96429.97
2023-04-24T01:06:53.518Z,96441.94
2023-04-24T01:09:20.009Z,96437.16
2023-04-24T01:11:46.399Z,96434.78
2023-04-24T01:14:12.802Z,96432.66
2023-04-24T01:16:39.105Z,96439.09
2023-04-24T01:19:05.660Z,96438.88
2023-04-24T01:21:32.056Z,96434.63
2023-04-24T01:23:58.376Z,96438.66
2023-04-24T01:26:25.436Z,96424.78
2023-04-24T01:28:55.040Z,96423.22
2023-04-24T01:31:21.417Z,96426.16
2023-04-24T01:33:47.835Z,96424.56
2023-04-24T01:36:14.163Z,96426.44
2023-04-24T01:38:40.624Z,96427.53
2023-04-24T01:41:06.906Z,96429.69
2023-04-24T01:43:33.262Z,96431.84
2023-04-24T01:45:59.608Z,96437.47
2023-04-24T01:48:26.313Z,96437.47
2023-04-24T01:50:52.645Z,96425.50
2023-04-24T01:53:18.995Z,96416.97
2023-04-24T01:55:45.305Z,96424.44
2023-04-24T01:58:11.677Z,96426.59
2023-04-24T02:00:38.240Z,96430.34
2023-04-24T02:03:04.692Z,96427.16
2023-04-24T02:05:31.164Z,96429.03
2023-04-24T02:07:57.434Z,96426.66
2023-04-24T02:10:23.733Z,96430.66
2023-04-24T02:12:50.041Z,96420.56
2023-04-24T02:15:16.403Z,96412.03
2023-04-24T02:17:42.800Z,96412.31
2023-04-24T02:20:09.170Z,96408.84
2023-04-24T02:22:35.444Z,96417.94
2023-04-24T02:25:01.799Z,96414.47
2023-04-24T02:27:28.026Z,96418.53
2023-04-24T02:29:54.379Z,96413.47
2023-04-24T02:32:20.723Z,96407.63
2023-04-24T02:34:47.076Z,96410.28
2023-04-24T02:37:13.492Z,96416.97
2023-04-24T02:39:39.974Z,96416.19
2023-04-24T02:42:06.418Z,96414.88
2023-04-24T02:44:32.755Z,96417.03
2023-04-24T02:46:59.081Z,96421.34
2023-04-24T02:49:26.365Z,96409.38
2023-04-24T02:51:52.703Z,96415.75
2023-04-24T02:54:19.049Z,96408.03
2023-04-24T02:56:45.276Z,96418.19
2023-04-24T02:59:11.649Z,96408.91
2023-04-24T03:01:38.017Z,96404.91
2023-04-24T03:04:04.537Z,96406.28
2023-04-24T03:06:30.897Z,96404.69
2023-04-24T03:08:57.213Z,96404.16
2023-04-24T03:11:23.604Z,96401.00
2023-04-24T03:13:49.932Z,96397.53
2023-04-24T03:16:16.432Z,96385.53
2023-04-24T03:18:43.016Z,96394.63
2023-04-24T03:21:09.377Z,96395.22
2023-04-24T03:23:35.843Z,96388.25
2023-04-24T03:26:02.117Z,96389.88
2023-04-24T03:28:28.593Z,96388.25
2023-04-24T03:30:54.936Z,96389.34
2023-04-24T03:33:21.288Z,96386.69
2023-04-24T03:35:47.684Z,96396.56
2023-04-24T03:38:14.020Z,96383.50
2023-04-24T03:40:40.417Z,96380.84
2023-04-24T03:43:06.851Z,96379.25
2023-04-24T03:45:33.149Z,96380.31
2023-04-24T03:48:05.875Z,96373.41
2023-04-24T03:50:32.321Z,96360.06
2023-04-24T03:52:58.621Z,96374.47
2023-04-24T03:55:25.049Z,96368.06
2023-04-24T03:57:51.458Z,96371.78
2023-04-24T04:00:17.878Z,96370.22
2023-04-24T04:02:44.258Z,96375.56
2023-04-24T04:05:10.910Z,96362.78
2023-04-24T04:07:37.184Z,96367.59
2023-04-24T04:10:03.450Z,96377.75
2023-04-24T04:12:29.871Z,96362.81
2023-04-24T04:14:56.194Z,96368.41
2023-04-24T04:17:22.549Z,96379.38
2023-04-24T04:19:48.816Z,96371.38
2023-04-24T04:22:15.117Z,96374.03
2023-04-24T04:24:41.495Z,96377.00
2023-04-24T04:27:07.881Z,96386.06
2023-04-24T04:29:34.323Z,96379.94
2023-04-24T04:32:00.730Z,96380.22
2023-04-24T04:34:27.305Z,96375.94
2023-04-24T04:36:53.732Z,96383.44
2023-04-24T04:39:20.069Z,96384.19
2023-04-24T04:41:46.414Z,96376.22
2023-04-24T04:44:12.846Z,96379.97
2023-04-24T04:46:39.172Z,96388.75
2023-04-24T04:49:05.692Z,96385.56
2023-04-24T04:51:32.037Z,96392.78
2023-04-24T04:53:58.471Z,96405.28
2023-04-24T04:56:24.768Z,96398.38
2023-04-24T04:58:51.323Z,96399.44
2023-04-24T05:01:17.714Z,96407.44
2023-04-24T05:03:44.898Z,96414.66
2023-04-24T05:06:11.258Z,96418.09
2023-04-24T05:08:37.546Z,96409.34
2023-04-24T05:11:03.902Z,96416.25
2023-04-24T05:13:39.074Z,96417.28
2023-04-24T05:16:06.706Z,96419.25
2023-04-24T05:18:33.198Z,96426.03
2023-04-24T05:20:59.576Z,96422.44
2023-04-24T05:23:25.938Z,96423.06
2023-04-24T05:25:52.293Z,96425.06
2023-04-24T05:28:19.068Z,96426.84
2023-04-24T05:30:45.484Z,96428.09
2023-04-24T05:33:12.025Z,96433.59
2023-04-24T05:35:38.578Z,96439.09
2023-04-24T05:38:04.938Z,96446.47
2023-04-24T05:40:31.240Z,96440.00
2023-04-24T05:42:57.550Z,96442.31
2023-04-24T05:45:23.930Z,96434.72
2023-04-24T05:47:50.469Z,96448.25
2023-04-24T05:50:17.085Z,96453.19
2023-04-24T05:52:43.392Z,96448.38
2023-04-24T05:55:09.679Z,96456.91
2023-04-24T05:57:36.022Z,96455.28
2023-04-24T06:00:02.440Z,96459.75
2023-04-24T06:02:28.976Z,96454.91
2023-04-24T06:04:55.818Z,96461.84
2023-04-24T06:07:22.239Z,96469.84
2023-04-24T06:09:48.578Z,96473.41
2023-04-24T06:12:15.048Z,96472.94
2023-04-24T06:14:41.326Z,96480.16
2023-04-24T06:17:07.671Z,96489.75
2023-04-24T06:19:34.265Z,96491.66
2023-04-24T06:22:00.629Z,96492.16
2023-04-24T06:24:27.020Z,96497.28
2023-04-24T06:26:53.352Z,96506.59
2023-04-24T06:29:20.934Z,96490.81
2023-04-24T06:31:47.370Z,96496.41
2023-04-24T06:34:13.692Z,96502.56
2023-04-24T06:36:40.182Z,96500.00
2023-04-24T06:39:06.648Z,96497.41
2023-04-24T06:41:33.053Z,96501.84
2023-04-24T06:43:59.452Z,96505.22
2023-04-24T06:46:25.771Z,96514.03
2023-04-24T06:48:52.064Z,96507.09
2023-04-24T06:51:18.626Z,96520.31
2023-04-24T06:53:46.050Z,96528.66
2023-04-24T06:56:13.529Z,96521.41
2023-04-24T06:58:39.934Z,96502.13
2023-04-24T07:01:06.416Z,96496.50
2023-04-24T07:03:32.949Z,96501.34
2023-04-24T07:05:59.378Z,96526.28
2023-04-24T07:08:25.881Z,96511.69
2023-04-24T07:10:52.209Z,96513.13
2023-04-24T07:13:18.615Z,96507.16
2023-04-24T07:15:45.022Z,96503.59
2023-04-24T07:18:11.353Z,96527.22
2023-04-24T07:20:37.754Z,96580.22
2023-04-24T07:23:04.205Z,96599.50
2023-04-24T07:25:30.645Z,96628.56
2023-04-24T07:27:56.933Z,96632.34
2023-04-24T07:30:23.528Z,96655.53
2023-04-24T07:32:49.918Z,96664.94
2023-04-24T07:35:16.246Z,96675.44
2023-04-24T07:37:42.900Z,96691.69
2023-04-24T07:40:09.148Z,96697.13
2023-04-24T07:42:35.453Z,96707.91
2023-04-24T07:45:01.767Z,96717.13
2023-04-24T07:47:28.416Z,96730.97
2023-04-24T07:49:54.756Z,96697.78
2023-04-24T07:52:21.053Z,96679.22
2023-04-24T07:54:47.391Z,96588.19
2023-04-24T07:57:13.783Z,96585.66
2023-04-24T07:59:40.230Z,96740.63
2023-04-24T08:02:06.948Z,96807.44
2023-04-24T08:04:33.393Z,96774.53
2023-04-24T08:06:59.861Z,96810.75
2023-04-24T08:09:27.525Z,96802.75
2023-04-24T08:11:54.036Z,96850.84
2023-04-24T08:14:20.605Z,96748.06
2023-04-24T08:16:47.033Z,96626.28
2023-04-24T08:19:13.400Z,96589.91
2023-04-24T08:21:39.710Z,96563.44
2023-04-24T08:24:06.044Z,96722.97
2023-04-24T08:26:32.479Z,96622.56
2023-04-24T08:29:02.007Z,96816.88
2023-04-24T08:31:28.525Z,96787.06
2023-04-24T08:33:54.870Z,96640.22
2023-04-24T08:36:21.290Z,96583.22
2023-04-24T08:38:47.650Z,96615.84
2023-04-24T08:41:13.954Z,96676.75
2023-04-24T08:43:44.019Z,96834.72
2023-04-24T08:46:12.347Z,96901.59
2023-04-24T08:48:38.901Z,96813.59
2023-04-24T08:51:05.223Z,96686.94
2023-04-24T08:53:31.606Z,96850.53
2023-04-24T08:55:57.973Z,96840.53
2023-04-24T08:58:24.208Z,96726.88
2023-04-24T09:00:50.550Z,96578.19
2023-04-24T09:03:17.392Z,96536.47
2023-04-24T09:05:44.180Z,96525.81
2023-04-24T09:08:10.530Z,96532.84
2023-04-24T09:10:36.869Z,96536.97
2023-04-24T09:13:03.423Z,96536.38
2023-04-24T09:15:29.739Z,96530.50
2023-04-24T09:17:56.129Z,96524.00
2023-04-24T09:20:22.531Z,96531.44
2023-04-24T09:22:48.964Z,96526.97
2023-04-24T09:25:15.255Z,96530.78
2023-04-24T09:27:41.569Z,96537.28
2023-04-24T09:33:15.480Z,96540.44
2023-04-24T09:35:42.657Z,96543.28
2023-04-24T09:38:09.937Z,96531.88
2023-04-24T09:40:40.446Z,96525.22
2023-04-24T09:45:47.784Z,96527.28
2023-04-24T09:48:14.449Z,96536.44
2023-04-24T09:50:40.920Z,96524.44
2023-04-24T09:53:07.342Z,96539.00
2023-04-24T09:55:33.814Z,96541.06
2023-04-24T09:58:00.252Z,96543.28
2023-04-24T10:00:26.812Z,96536.78
2023-04-24T10:05:52.142Z,96535.19
2023-04-24T10:08:18.542Z,96537.72
2023-04-24T10:10:52.044Z,96521.41
2023-04-24T10:13:20.166Z,96535.78
2023-04-24T10:15:47.099Z,96527.88
2023-04-24T10:18:13.591Z,96535.78
2023-04-24T10:20:40.216Z,96537.97
2023-04-24T10:23:06.537Z,96551.91
2023-04-24T10:25:33.044Z,96549.88
2023-04-24T10:27:59.423Z,96548.78
2023-04-24T10:30:26.173Z,96540.56
2023-04-24T10:32:52.489Z,96540.72
2023-04-24T10:35:18.816Z,96550.53
2023-04-24T10:37:45.382Z,96535.00
2023-04-24T10:40:11.843Z,96537.38
2023-04-24T10:42:38.184Z,96544.34
2023-04-24T10:45:04.582Z,96533.88
2023-04-24T10:47:30.903Z,96532.91
2023-04-24T10:49:57.418Z,96547.63
2023-04-24T10:52:24.018Z,96545.34
2023-04-24T10:54:50.453Z,96553.91
2023-04-24T10:57:16.879Z,96558.19
2023-04-24T10:59:43.160Z,96555.81
2023-04-24T11:02:09.565Z,96561.22
2023-04-24T11:04:35.924Z,96556.78
2023-04-24T11:07:02.505Z,96563.59
2023-04-24T11:09:29.380Z,96558.03
2023-04-24T11:11:56.319Z,96561.97
2023-04-24T11:14:22.979Z,96552.66
2023-04-24T11:16:49.434Z,96553.88
2023-04-24T11:19:15.876Z,96546.44
2023-04-24T11:21:42.255Z,96556.53
2023-04-24T11:24:08.806Z,96559.69
2023-04-24T11:26:35.159Z,96569.78
2023-04-24T11:29:01.516Z,96568.81
2023-04-24T11:31:28.094Z,96570.72
2023-04-24T11:33:54.813Z,96575.78
2023-04-24T11:36:21.651Z,96586.84
2023-04-24T11:38:48.906Z,96575.78
2023-04-24T11:41:15.383Z,96587.31
2023-04-24T11:43:42.168Z,96586.53
2023-04-24T11:46:09.074Z,96594.91
2023-04-24T11:48:35.771Z,96588.06
2023-04-24T11:51:02.194Z,96589.19
2023-04-24T11:53:28.863Z,96600.72
2023-04-24T11:55:55.129Z,96604.53
2023-04-24T11:58:21.491Z,96603.72
2023-04-24T12:00:47.914Z,96598.16
2023-04-24T12:03:28.035Z,96611.91
2023-04-24T12:05:54.713Z,96608.72
2023-04-24T12:08:21.117Z,96609.34
2023-04-24T12:10:47.445Z,96612.03
2023-04-24T12:13:13.764Z,96622.13
2023-04-24T12:15:40.127Z,96619.56
2023-04-24T12:18:06.710Z,96626.34
2023-04-24T12:20:33.138Z,96633.13
2023-04-24T12:22:59.593Z,96646.84
2023-04-24T12:25:25.920Z,96639.09
2023-04-24T12:27:52.267Z,96650.72
2023-04-24T12:30:18.763Z,96659.41
2023-04-24T12:32:45.151Z,96662.72
2023-04-24T12:35:14.695Z,96666.47
2023-04-24T12:37:41.169Z,96671.19
2023-04-24T12:40:07.680Z,96667.22
2023-04-24T12:42:34.181Z,96673.69
2023-04-24T12:45:00.696Z,96667.84
2023-04-24T12:47:27.018Z,96677.28
2023-04-24T12:49:53.310Z,96680.88
2023-04-24T12:52:19.645Z,96684.47
2023-04-24T12:54:46.088Z,96683.50
2023-04-24T12:57:12.388Z,96692.44
2023-04-24T12:59:38.669Z,96697.63
2023-04-24T13:02:05.464Z,96695.84
2023-04-24T13:04:32.193Z,96703.91
2023-04-24T13:06:58.486Z,96727.06
2023-04-24T13:09:24.821Z,96722.81
2023-04-24T13:11:51.139Z,96730.34
2023-04-24T13:14:17.557Z,96721.81
2023-04-24T13:16:43.900Z,96732.03
2023-04-24T13:19:10.209Z,96750.03
2023-04-24T13:21:36.545Z,96757.00
2023-04-24T13:24:02.825Z,96750.84
2023-04-24T13:26:29.164Z,96762.88
2023-04-24T13:28:55.497Z,96747.44
2023-04-24T13:31:21.874Z,96753.63
2023-04-24T13:33:48.253Z,96748.84
2023-04-24T13:36:14.680Z,96745.16
2023-04-24T13:38:41.173Z,96758.38
2023-04-24T13:41:07.553Z,96753.03
2023-04-24T13:43:33.918Z,96750.63
2023-04-24T13:46:00.393Z,96752.31
2023-04-24T13:48:26.970Z,96761.25
2023-04-24T13:50:53.316Z,96759.16
2023-04-24T13:53:20.027Z,96760.84
2023-04-24T13:55:47.211Z,96755.16
2023-04-24T13:58:13.610Z,96764.22
2023-04-24T14:00:39.960Z,96764.03
2023-04-24T14:03:08.959Z,96768.69
2023-04-24T14:05:37.169Z,96773.84
2023-04-24T14:08:04.834Z,96784.88
2023-04-24T14:10:31.180Z,96781.69
2023-04-24T14:12:57.619Z,96775.22
2023-04-24T14:15:24.036Z,96779.59
2023-04-24T14:17:50.390Z,96779.09
2023-04-24T14:20:16.836Z,96778.06
2023-04-24T14:22:43.227Z,96786.41
2023-04-24T14:25:09.585Z,96784.34
2023-04-24T14:27:35.894Z,96775.78
2023-04-24T14:30:02.293Z,96781.44
2023-04-24T14:32:28.725Z,96787.38
2023-04-24T14:34:55.019Z,96782.09
2023-04-24T14:37:21.559Z,96798.78
2023-04-24T14:39:55.761Z,96794.00
2023-04-24T14:42:27.259Z,96805.28
2023-04-24T14:44:53.604Z,96807.75
2023-04-24T14:47:20.069Z,96803.81
2023-04-24T14:49:46.531Z,96807.56
2023-04-24T14:52:14.753Z,96815.66
2023-04-24T14:54:41.248Z,96814.06
2023-04-24T14:57:07.903Z,96813.84
2023-04-24T14:59:34.243Z,96817.91
2023-04-24T15:02:15.081Z,96824.94
2023-04-24T15:04:42.973Z,96828.19
2023-04-24T15:07:09.739Z,96826.91
2023-04-24T15:09:36.070Z,96821.03
2023-04-24T15:12:02.422Z,96833.91
2023-04-24T15:14:28.729Z,96838.47
2023-04-24T15:16:55.019Z,96831.53
2023-04-24T15:19:21.420Z,96837.97
2023-04-24T15:21:47.788Z,96828.34
2023-04-24T15:24:14.052Z,96829.94
2023-04-24T15:26:41.002Z,96823.72
2023-04-24T15:29:07.458Z,96835.44
2023-04-24T15:31:33.993Z,96828.19
2023-04-24T15:34:00.362Z,96833.53
2023-04-24T15:36:26.792Z,96826.09
2023-04-24T15:38:53.118Z,96824.50
2023-04-24T15:41:19.426Z,96834.22
2023-04-24T15:43:46.022Z,96836.66
2023-04-24T15:46:12.790Z,96829.50
2023-04-24T15:48:39.137Z,96843.47
2023-04-24T15:51:05.535Z,96845.91
2023-04-24T15:53:31.929Z,96850.00
2023-04-24T15:55:58.311Z,96855.94
2023-04-24T15:58:25.839Z,96852.44
2023-04-24T16:00:52.278Z,96868.53
2023-04-24T16:03:18.691Z,96865.84
2023-04-24T16:05:45.138Z,96868.53
2023-04-24T16:08:11.461Z,96861.28
2023-04-24T16:10:38.127Z,96872.78
2023-04-24T16:13:04.561Z,96875.75
2023-04-24T16:15:30.818Z,96884.88
2023-04-24T16:17:57.155Z,96881.69
2023-04-24T16:20:23.850Z,96882.75
2023-04-24T16:22:50.170Z,96877.19
2023-04-24T16:25:16.490Z,96879.38
2023-04-24T16:27:42.828Z,96885.28
2023-04-24T16:30:09.128Z,96896.56
2023-04-24T16:32:35.956Z,96888.81
2023-04-24T16:35:02.340Z,96891.28
2023-04-24T16:37:28.794Z,96891.56
2023-04-24T16:39:55.288Z,96893.72
2023-04-24T16:42:21.714Z,96899.38
2023-04-24T16:44:48.150Z,96901.53
2023-04-24T16:47:15.340Z,96898.84
2023-04-24T16:49:41.943Z,96910.13
2023-04-24T16:52:08.334Z,96900.19
2023-04-24T16:54:34.853Z,96909.63
2023-04-24T16:57:01.289Z,96913.34
2023-04-24T16:59:27.613Z,96912.84
2023-04-24T17:01:54.014Z,96910.41
2023-04-24T17:04:20.463Z,96907.25
2023-04-24T17:06:47.014Z,96903.25
2023-04-24T17:09:13.542Z,96906.22
2023-04-24T17:11:39.944Z,96915.34
2023-04-24T17:14:06.258Z,96900.63
2023-04-24T17:16:32.621Z,96905.19
2023-04-24T17:18:58.947Z,96911.91
2023-04-24T17:21:25.299Z,96912.19
2023-04-24T17:23:51.638Z,96911.69
2023-04-24T17:26:18.063Z,96912.75
2023-04-24T17:28:44.373Z,96911.44
2023-04-24T17:31:11.015Z,96920.53
2023-04-24T17:33:37.424Z,96929.94
2023-04-24T17:36:03.747Z,96926.47
2023-04-24T17:38:30.139Z,96922.47
2023-04-24T17:40:56.796Z,96930.78
2023-04-24T17:43:23.433Z,96928.38
2023-04-24T17:45:49.832Z,96924.41
2023-04-24T17:48:16.370Z,96928.97
2023-04-24T17:50:42.814Z,96935.38
2023-04-24T17:53:09.429Z,96940.22
2023-04-24T17:55:36.178Z,96943.97
2023-04-24T17:58:02.633Z,96945.06
2023-04-24T18:00:29.160Z,96941.84
2023-04-24T18:02:55.599Z,96942.94
2023-04-24T18:05:22.125Z,96945.09
2023-04-24T18:07:48.425Z,96948.84
2023-04-24T18:10:14.776Z,96936.84
2023-04-24T18:12:41.143Z,96940.84
2023-04-24T18:15:14.258Z,96944.63
2023-04-24T18:17:41.437Z,96949.47
2023-04-24T18:20:08.195Z,96940.63
2023-04-24T18:22:34.543Z,96948.94
2023-04-24T18:25:01.008Z,96962.31
2023-04-24T18:27:27.343Z,96960.72
2023-04-24T18:29:53.684Z,96960.97
2023-04-24T18:32:20.195Z,96963.94
2023-04-24T18:34:46.546Z,96970.91
2023-04-24T18:37:12.861Z,96973.84
2023-04-24T18:39:39.200Z,96989.91
2023-04-24T18:42:05.472Z,96997.13
2023-04-24T18:44:31.919Z,96991.25
2023-04-24T18:46:58.792Z,96990.72
2023-04-24T18:49:25.283Z,96995.28
2023-04-24T18:51:54.220Z,97001.72
2023-04-24T18:54:21.209Z,96989.72
2023-04-24T18:56:47.751Z,96990.47
2023-04-24T18:59:14.232Z,96990.75
2023-04-24T19:01:40.587Z,96993.72
2023-04-24T19:04:06.954Z,97000.41
2023-04-24T19:06:33.500Z,96996.97
2023-04-24T19:08:59.900Z,97000.69
2023-04-24T19:11:26.435Z,97005.50
2023-04-24T19:13:52.885Z,97001.25
2023-04-24T19:16:19.312Z,97018.38
2023-04-24T19:18:45.649Z,97013.25
2023-04-24T19:21:12.242Z,97018.88
2023-04-24T19:23:38.560Z,97021.84
2023-04-24T19:26:04.949Z,97006.88
2023-04-24T19:28:31.252Z,97017.06
2023-04-24T19:30:57.569Z,97017.06
2023-04-24T19:33:23.958Z,97017.63
2023-04-24T19:35:50.228Z,97028.31
2023-04-24T19:38:16.566Z,97019.75
2023-04-24T19:40:42.994Z,97020.81
2023-04-24T19:43:09.275Z,97021.09
2023-04-24T19:45:35.582Z,97022.97
2023-04-24T19:48:02.113Z,97024.03
2023-04-24T19:50:28.589Z,97026.19
2023-04-24T19:52:54.970Z,97022.97
2023-04-24T19:55:21.389Z,97019.53
2023-04-24T19:57:47.884Z,97022.47
2023-04-24T20:00:14.271Z,97018.19
2023-04-24T20:02:40.712Z,97010.44
2023-04-24T20:05:07.481Z,97008.88
2023-04-24T20:07:34.326Z,97007.53
2023-04-24T20:10:00.649Z,97005.13
2023-04-24T20:12:27.086Z,97010.75
2023-04-24T20:14:53.436Z,97009.94
2023-04-24T20:17:19.834Z,97005.69
2023-04-24T20:19:46.234Z,97015.03
2023-04-24T20:22:13.441Z,97004.34
2023-04-24T20:24:39.984Z,97003.81
2023-04-24T20:27:06.297Z,97015.59
2023-04-24T20:29:32.680Z,97015.06
2023-04-24T20:31:59.218Z,97013.44
2023-04-24T20:34:26.230Z,97006.50
2023-04-24T20:36:52.520Z,97006.78
2023-04-24T20:39:19.198Z,97007.84
2023-04-24T20:41:45.593Z,97009.75
2023-04-24T20:44:11.981Z,97005.47
2023-04-24T20:46:38.505Z,97013.47
2023-04-24T20:49:05.071Z,97009.22
2023-04-24T20:51:31.385Z,97011.88
2023-04-24T20:53:57.697Z,97009.22
2023-04-24T20:56:23.977Z,97006.53
2023-04-24T20:58:50.487Z,97002.00
2023-04-24T21:01:17.285Z,97005.72
2023-04-24T21:03:43.676Z,97007.59
2023-04-24T21:06:10.055Z,97013.22
2023-04-24T21:08:36.398Z,97005.19
2023-04-24T21:11:02.870Z,97007.88
2023-04-24T21:13:29.198Z,97007.09
2023-04-24T21:15:59.197Z,97003.09
2023-04-24T21:18:28.855Z,96999.59
2023-04-24T21:20:55.238Z,97002.28
2023-04-24T21:23:21.610Z,97007.13
2023-04-24T21:25:48.114Z,97004.44
2023-04-24T21:28:14.459Z,96996.69
2023-04-24T21:30:40.807Z,97003.91
2023-04-24T21:33:07.375Z,96993.50
2023-04-24T21:35:34.169Z,96999.91
2023-04-24T21:38:00.546Z,97003.66
2023-04-24T21:40:26.907Z,97002.84
2023-04-24T21:42:53.253Z,97001.25
2023-04-24T21:45:19.586Z,97010.34
2023-04-24T21:47:46.025Z,97002.88
2023-04-24T21:50:12.331Z,97009.25
2023-04-24T21:52:38.643Z,97003.41
2023-04-24T21:55:05.193Z,96998.31
2023-04-24T21:57:31.623Z,97006.63
2023-04-24T21:59:57.934Z,97006.88
2023-04-24T22:02:24.503Z,97007.97
2023-04-24T22:04:50.994Z,97002.91
2023-04-24T22:07:17.329Z,96993.56
2023-04-24T22:09:43.679Z,96995.69
2023-04-24T22:12:10.162Z,97007.19
2023-04-24T22:14:36.482Z,97001.59
2023-04-24T22:17:02.797Z,96987.97
2023-04-24T22:19:29.184Z,96999.19
2023-04-24T22:21:55.482Z,96995.94
2023-04-24T22:24:21.767Z,96995.41
2023-04-24T22:26:48.409Z,96994.88
2023-04-24T22:29:14.944Z,96990.63
2023-04-24T22:31:41.382Z,96995.44
2023-04-24T22:34:08.881Z,96989.56
2023-04-24T22:36:35.209Z,96994.38
2023-04-24T22:39:01.620Z,96995.44
2023-04-24T22:41:27.947Z,96995.72
2023-04-24T22:43:54.445Z,96996.00
2023-04-24T22:46:20.767Z,96991.72
2023-04-24T22:48:47.195Z,96989.31
2023-04-24T22:51:13.802Z,96986.91
2023-04-24T22:53:40.136Z,96990.63
2023-04-24T22:56:06.498Z,96985.56
2023-04-24T22:58:32.888Z,96983.97
2023-04-24T23:00:59.637Z,96983.19
2023-04-24T23:03:26.169Z,96976.53
2023-04-24T23:05:52.996Z,96983.72
2023-04-24T23:08:19.327Z,96981.31
2023-04-24T23:10:45.643Z,96977.31
2023-04-24T23:13:12.085Z,96969.56
2023-04-24T23:15:38.390Z,96976.78
2023-04-24T23:18:07.649Z,96979.72
2023-04-24T23:20:34.191Z,96977.31
2023-04-24T23:23:00.464Z,96978.41
2023-04-24T23:25:26.765Z,96984.03
2023-04-24T23:27:52.999Z,96984.25
2023-04-24T23:30:19.358Z,96973.84
2023-04-24T23:32:46.301Z,96977.59
2023-04-24T23:35:22.039Z,96975.22
2023-04-24T23:37:50.348Z,96966.66
2023-04-24T23:40:16.691Z,96966.66
2023-04-24T23:42:43.025Z,96968.78
2023-04-24T23:45:09.388Z,96966.41
2023-04-24T23:47:35.720Z,96965.59
2023-04-24T23:50:02.075Z,96973.88
2023-04-24T23:52:28.495Z,96974.94
2023-04-24T23:54:55.002Z,96969.09
2023-04-24T23:57:21.643Z,96974.41
2023-04-24T23:59:51.134Z,96972.28
